createdAt,value
2023-09-20T00:01:22.951Z,100521.19
2023-09-20T00:04:27.917Z,100513.94
2023-09-20T00:07:32.581Z,100495.84
2023-09-20T00:10:38.691Z,100485.25
2023-09-20T00:13:43.642Z,100466.59
2023-09-20T00:16:47.881Z,100460.19
2023-09-20T00:19:52.176Z,100453.69
2023-09-20T00:22:59.330Z,100449.31
2023-09-20T00:26:04.670Z,100429.56
2023-09-20T00:29:09.701Z,100436.28
2023-09-20T00:32:14.235Z,100427.38
2023-09-20T00:35:20.171Z,100421.97
2023-09-20T00:38:26.019Z,100416.53
2023-09-20T00:41:30.489Z,100430.50
2023-09-20T00:44:37.133Z,100423.53
2023-09-20T00:47:49.136Z,100424.25
2023-09-20T00:50:53.681Z,100421.22
2023-09-20T00:53:59.751Z,100412.88
2023-09-20T00:57:07.202Z,100415.25
2023-09-20T01:00:22.130Z,100413.47
2023-09-20T01:03:27.324Z,100411.41
2023-09-20T01:06:33.267Z,100404.16
2023-09-20T01:09:38.361Z,100404.88
2023-09-20T01:12:42.783Z,100409.19
2023-09-20T01:15:47.664Z,100394.41
2023-09-20T01:18:52.514Z,100400.41
2023-09-20T01:21:57.090Z,100401.13
2023-09-20T01:25:02.391Z,100398.34
2023-09-20T01:28:09.479Z,100396.41
2023-09-20T01:31:14.395Z,100396.41
2023-09-20T01:34:19.276Z,100402.06
2023-09-20T01:37:23.792Z,100406.53
2023-09-20T01:40:34.265Z,100410.41
2023-09-20T01:43:39.803Z,100396.41
2023-09-20T01:46:44.663Z,100409.69
2023-09-20T01:49:50.800Z,100409.69
2023-09-20T01:52:59.261Z,100411.59
2023-09-20T01:56:04.211Z,100399.81
2023-09-20T01:59:10.543Z,100405.81
2023-09-20T02:02:15.041Z,100397.03
2023-09-20T02:05:20.353Z,100395.91
2023-09-20T02:08:25.307Z,100405.69
2023-09-20T02:11:29.597Z,100400.41
2023-09-20T02:14:34.117Z,100405.56
2023-09-20T02:17:39.324Z,100398.44
2023-09-20T02:20:45.078Z,100414.50
2023-09-20T02:23:53.001Z,100401.22
2023-09-20T02:26:57.071Z,100403.75
2023-09-20T02:30:01.991Z,100411.56
2023-09-20T02:33:09.519Z,100395.91
2023-09-20T02:36:14.711Z,100418.84
2023-09-20T02:39:19.657Z,100421.88
2023-09-20T02:42:27.802Z,100421.88
2023-09-20T02:45:35.078Z,100414.03
2023-09-20T02:48:39.529Z,100426.34
2023-09-20T02:51:43.979Z,100425.34
2023-09-20T02:54:50.015Z,100426.34
2023-09-20T02:57:56.053Z,100431.66
2023-09-20T03:01:00.720Z,100424.38
2023-09-20T03:04:05.903Z,100417.13
2023-09-20T03:07:10.366Z,100408.22
2023-09-20T03:10:17.272Z,100410.63
2023-09-20T03:13:22.080Z,100424.84
2023-09-20T03:16:27.646Z,100422.69
2023-09-20T03:19:35.437Z,100440.56
2023-09-20T03:22:40.992Z,100445.16
2023-09-20T03:25:45.704Z,100446.56
2023-09-20T03:28:50.153Z,100440.56
2023-09-20T03:31:54.662Z,100438.03
2023-09-20T03:35:00.582Z,100440.56
2023-09-20T03:38:05.282Z,100436.94
2023-09-20T03:41:10.307Z,100442.50
2023-09-20T03:44:16.102Z,100435.47
2023-09-20T03:47:21.095Z,100439.94
2023-09-20T03:50:26.565Z,100431.13
2023-09-20T03:53:31.478Z,100426.81
2023-09-20T03:56:36.737Z,100426.81
2023-09-20T03:59:43.330Z,100427.75
2023-09-20T04:02:49.528Z,100418.84
2023-09-20T04:05:57.997Z,100432.00
2023-09-20T04:09:11.036Z,100433.78
2023-09-20T04:12:15.874Z,100429.59
2023-09-20T04:15:20.674Z,100426.59
2023-09-20T04:18:27.582Z,100419.56
2023-09-20T04:21:32.627Z,100430.16
2023-09-20T04:24:38.103Z,100417.84
2023-09-20T04:27:43.312Z,100417.16
2023-09-20T04:30:48.692Z,100423.44
2023-09-20T04:33:54.359Z,100425.13
2023-09-20T04:36:58.928Z,100415.50
2023-09-20T04:40:04.680Z,100419.56
2023-09-20T04:43:09.701Z,100413.41
2023-09-20T04:46:14.092Z,100422.47
2023-09-20T04:49:21.366Z,100424.41
2023-09-20T04:52:25.994Z,100409.44
2023-09-20T04:55:35.042Z,100412.84
2023-09-20T04:58:40.174Z,100411.16
2023-09-20T05:01:44.751Z,100413.09
2023-09-20T05:04:49.068Z,100408.50
2023-09-20T05:07:54.066Z,100408.50
2023-09-20T05:10:58.294Z,100412.44
2023-09-20T05:14:02.672Z,100401.13
2023-09-20T05:17:06.844Z,100399.16
2023-09-20T05:20:15.413Z,100393.53
2023-09-20T05:23:19.641Z,100395.22
2023-09-20T05:26:24.511Z,100391.56
2023-09-20T05:29:29.490Z,100386.63
2023-09-20T05:32:34.601Z,100388.16
2023-09-20T05:35:40.797Z,100385.50
2023-09-20T05:38:45.386Z,100382.84
2023-09-20T05:41:50.176Z,100379.22
2023-09-20T05:44:56.427Z,100376.44
2023-09-20T05:48:02.524Z,100379.22
2023-09-20T05:51:07.445Z,100375.22
2023-09-20T05:54:13.020Z,100388.22
2023-09-20T05:57:19.444Z,100378.72
2023-09-20T06:00:24.006Z,100384.72
2023-09-20T06:03:28.621Z,100392.69
2023-09-20T06:06:33.304Z,100392.69
2023-09-20T06:09:38.162Z,100409.19
2023-09-20T06:12:42.785Z,100402.06
2023-09-20T06:15:47.428Z,100399.16
2023-09-20T06:19:05.248Z,100400.47
2023-09-20T06:22:14.213Z,100392.25
2023-09-20T06:25:22.182Z,100392.44
2023-09-20T06:28:29.207Z,100376.25
2023-09-20T06:31:34.064Z,100390.66
2023-09-20T06:34:53.022Z,100383.38
2023-09-20T06:38:01.981Z,100380.06
2023-09-20T06:41:06.651Z,100380.06
2023-09-20T06:44:13.836Z,100386.56
2023-09-20T06:47:19.749Z,100384.03
2023-09-20T06:50:24.981Z,100402.50
2023-09-20T06:53:31.661Z,100410.72
2023-09-20T06:56:36.355Z,100401.06
2023-09-20T06:59:40.796Z,100409.72
2023-09-20T07:02:47.704Z,100411.16
2023-09-20T07:05:53.184Z,100410.63
2023-09-20T07:08:58.939Z,100414.28
2023-09-20T07:12:04.162Z,100422.69
2023-09-20T07:15:10.414Z,100415.84
2023-09-20T07:18:15.868Z,100413.19
2023-09-20T07:21:21.568Z,100412.06
2023-09-20T07:24:25.789Z,100417.50
2023-09-20T07:27:33.449Z,100410.97
2023-09-20T07:30:45.829Z,100416.56
2023-09-20T07:33:51.424Z,100430.94
2023-09-20T07:36:58.088Z,100422.25
2023-09-20T07:40:02.531Z,100421.59
2023-09-20T07:43:18.681Z,100419.91
2023-09-20T07:46:28.168Z,100426.91
2023-09-20T07:49:33.731Z,100408.44
2023-09-20T07:52:39.519Z,100425.84
2023-09-20T07:55:58.488Z,100434.28
2023-09-20T07:59:06.355Z,100432.53
2023-09-20T08:02:13.731Z,100420.06
2023-09-20T08:05:18.739Z,100421.75
2023-09-20T08:08:23.271Z,100431.53
2023-09-20T08:11:28.661Z,100424.03
2023-09-20T08:14:33.525Z,100419.66
2023-09-20T08:17:56.693Z,100415.03
2023-09-20T08:21:02.702Z,100413.38
2023-09-20T08:24:26.285Z,100418.97
2023-09-20T08:27:49.029Z,100411.69
2023-09-20T08:31:11.906Z,100419.25
2023-09-20T08:34:36.108Z,100429.19
2023-09-20T08:37:59.713Z,100434.31
2023-09-20T08:41:22.818Z,100437.69
2023-09-20T08:44:47.736Z,100440.34
2023-09-20T08:48:14.282Z,100457.00
2023-09-20T08:52:14.265Z,100451.97
2023-09-20T08:55:37.291Z,100467.09
2023-09-20T08:59:01.180Z,100457.84
2023-09-20T09:02:15.666Z,100456.66
2023-09-20T09:05:22.840Z,100452.72
2023-09-20T09:08:28.419Z,100438.19
2023-09-20T09:11:33.036Z,100448.41
2023-09-20T09:14:40.148Z,100447.25
2023-09-20T09:17:49.064Z,100471.03
2023-09-20T09:20:53.688Z,100459.56
2023-09-20T09:24:00.029Z,100463.00
2023-09-20T09:27:07.695Z,100463.16
2023-09-20T09:30:17.947Z,100458.16
2023-09-20T09:33:24.436Z,100453.69
2023-09-20T09:36:29.698Z,100459.31
2023-09-20T09:39:35.888Z,100451.75
2023-09-20T09:42:45.011Z,100449.78
2023-09-20T09:45:51.396Z,100459.19
2023-09-20T09:48:56.609Z,100459.09
2023-09-20T09:52:01.919Z,100455.72
2023-09-20T09:55:07.666Z,100454.97
2023-09-20T09:58:13.269Z,100456.69
2023-09-20T10:01:20.921Z,100440.72
2023-09-20T10:04:27.489Z,100458.81
2023-09-20T10:07:34.733Z,100459.66
2023-09-20T10:10:39.740Z,100452.50
2023-09-20T10:13:45.676Z,100459.50
2023-09-20T10:16:51.126Z,100464.13
2023-09-20T10:19:57.519Z,100464.41
2023-09-20T10:23:05.319Z,100465.63
2023-09-20T10:26:17.260Z,100471.13
2023-09-20T10:29:30.032Z,100470.28
2023-09-20T10:32:55.213Z,100469.19
2023-09-20T10:35:59.903Z,100457.94
2023-09-20T10:39:19.740Z,100463.25
2023-09-20T10:42:24.730Z,100451.91
2023-09-20T10:45:35.899Z,100458.78
2023-09-20T10:48:50.834Z,100462.41
2023-09-20T10:51:56.109Z,100461.00
2023-09-20T10:55:24.420Z,100457.88
2023-09-20T10:58:29.787Z,100454.78
2023-09-20T11:01:37.044Z,100452.25
2023-09-20T11:04:41.743Z,100462.78
2023-09-20T11:07:48.584Z,100461.25
2023-09-20T11:10:55.255Z,100440.22
2023-09-20T11:14:00.570Z,100453.38
2023-09-20T11:17:06.579Z,100470.75
2023-09-20T11:20:13.834Z,100455.19
2023-09-20T11:23:18.805Z,100446.63
2023-09-20T11:26:30.355Z,100444.97
2023-09-20T11:29:38.534Z,100450.53
2023-09-20T11:32:43.759Z,100451.94
2023-09-20T11:35:48.149Z,100449.31
2023-09-20T11:38:53.001Z,100457.31
2023-09-20T11:42:05.993Z,100461.38
2023-09-20T11:45:40.400Z,100454.50
2023-09-20T11:48:38.500Z,100456.88
2023-09-20T11:51:44.498Z,100452.81
2023-09-20T11:54:49.089Z,100425.44
2023-09-20T11:57:56.390Z,100437.94
2023-09-20T12:01:06.266Z,100416.88
2023-09-20T12:04:11.140Z,100419.84
2023-09-20T12:07:18.020Z,100427.28
2023-09-20T12:10:22.919Z,100416.34
2023-09-20T12:13:27.376Z,100430.63
2023-09-20T12:16:32.587Z,100434.97
2023-09-20T12:19:36.639Z,100437.94
2023-09-20T12:22:42.190Z,100429.75
2023-09-20T12:25:46.951Z,100424.31
2023-09-20T12:28:51.844Z,100409.16
2023-09-20T12:31:57.834Z,100421.63
2023-09-20T12:35:02.019Z,100419.63
2023-09-20T12:38:09.670Z,100425.25
2023-09-20T12:41:14.252Z,100417.13
2023-09-20T12:44:18.856Z,100409.84
2023-09-20T12:47:23.240Z,100421.06
2023-09-20T12:50:28.036Z,100415.44
2023-09-20T12:53:35.809Z,100424.13
2023-09-20T12:56:40.780Z,100430.88
2023-09-20T12:59:45.973Z,100442.69
2023-09-20T13:02:50.483Z,100450.28
2023-09-20T13:05:55.386Z,100451.50
2023-09-20T13:09:02.165Z,100453.63
2023-09-20T13:12:07.118Z,100443.41
2023-09-20T13:15:16.826Z,100417.59
2023-09-20T13:18:21.315Z,100419.28
2023-09-20T13:21:25.838Z,100418.31
2023-09-20T13:24:32.550Z,100420.22
2023-09-20T13:27:37.158Z,100419.69
2023-09-20T13:30:43.503Z,100423.03
2023-09-20T13:33:49.291Z,100419.00
2023-09-20T13:36:54.146Z,100424.63
2023-09-20T13:39:59.842Z,100409.47
2023-09-20T13:43:05.225Z,100420.13
2023-09-20T13:46:16.964Z,100412.97
2023-09-20T13:49:21.662Z,100416.03
2023-09-20T13:52:27.633Z,100394.72
2023-09-20T13:55:33.017Z,100392.06
2023-09-20T13:58:37.560Z,100397.47
2023-09-20T14:01:42.588Z,100404.75
2023-09-20T14:04:47.453Z,100402.06
2023-09-20T14:07:56.863Z,100402.31
2023-09-20T14:11:01.842Z,100403.69
2023-09-20T14:14:06.420Z,100382.50
2023-09-20T14:17:11.245Z,100370.13
2023-09-20T14:20:20.065Z,100352.44
2023-09-20T14:23:25.147Z,100339.84
2023-09-20T14:26:29.647Z,100342.94
2023-09-20T14:29:35.024Z,100338.59
2023-09-20T14:32:40.109Z,100330.97
2023-09-20T14:35:45.162Z,100334.38
2023-09-20T14:38:49.637Z,100341.03
2023-09-20T14:41:53.942Z,100330.97
2023-09-20T14:44:58.347Z,100320.97
2023-09-20T14:48:03.727Z,100308.94
2023-09-20T14:51:15.975Z,100316.72
2023-09-20T14:54:20.367Z,100315.03
2023-09-20T14:57:28.984Z,100320.50
2023-09-20T15:00:34.339Z,100314.72
2023-09-20T15:03:39.202Z,100310.84
2023-09-20T15:06:44.352Z,100301.13
2023-09-20T15:09:49.028Z,100289.72
2023-09-20T15:13:02.807Z,100277.38
2023-09-20T15:16:18.693Z,100296.78
2023-09-20T15:19:22.811Z,100290.78
2023-09-20T15:22:32.271Z,100294.44
2023-09-20T15:25:37.155Z,100265.25
2023-09-20T15:28:41.671Z,100269.38
2023-09-20T15:31:47.325Z,100265.06
2023-09-20T15:35:03.538Z,100259.69
2023-09-20T15:38:09.307Z,100263.00
2023-09-20T15:41:13.934Z,100263.72
2023-09-20T15:44:20.141Z,100267.47
2023-09-20T15:47:24.343Z,100257.81
2023-09-20T15:50:31.601Z,100259.63
2023-09-20T15:53:36.643Z,100248.22
2023-09-20T15:56:42.158Z,100252.47
2023-09-20T15:59:46.627Z,100245.00
2023-09-20T16:02:50.853Z,100239.66
2023-09-20T16:05:56.758Z,100250.34
2023-09-20T16:09:01.142Z,100262.88
2023-09-20T16:12:05.962Z,100248.91
2023-09-20T16:15:12.203Z,100256.69
2023-09-20T16:18:17.595Z,100252.88
2023-09-20T16:21:24.914Z,100272.00
2023-09-20T16:24:30.819Z,100269.63
2023-09-20T16:27:36.334Z,100271.63
2023-09-20T16:30:41.002Z,100274.59
2023-09-20T16:33:49.090Z,100286.06
2023-09-20T16:36:54.068Z,100275.03
2023-09-20T16:39:58.827Z,100285.53
2023-09-20T16:43:03.410Z,100288.13
2023-09-20T16:46:08.231Z,100290.09
2023-09-20T16:49:13.610Z,100287.75
2023-09-20T16:52:18.599Z,100280.31
2023-09-20T16:55:22.876Z,100270.47
2023-09-20T16:58:27.543Z,100288.75
2023-09-20T17:01:32.112Z,100282.34
2023-09-20T17:04:37.668Z,100276.66
2023-09-20T17:07:45.840Z,100286.06
2023-09-20T17:10:50.188Z,100286.47
2023-09-20T17:13:54.535Z,100272.31
2023-09-20T17:17:00.130Z,100264.59
2023-09-20T17:20:06.602Z,100251.28
2023-09-20T17:23:11.659Z,100253.41
2023-09-20T17:26:16.066Z,100249.22
2023-09-20T17:29:20.635Z,100245.88
2023-09-20T17:32:24.977Z,100251.81
2023-09-20T17:35:29.874Z,100252.25
2023-09-20T17:38:34.600Z,100266.16
2023-09-20T17:41:39.533Z,100262.81
2023-09-20T17:44:44.380Z,100263.97
2023-09-20T17:47:50.821Z,100262.41
2023-09-20T17:51:00.077Z,100271.69
2023-09-20T17:54:05.778Z,100264.84
2023-09-20T17:57:10.585Z,100265.66
2023-09-20T18:00:17.004Z,100267.78
2023-09-20T18:03:24.170Z,100264.84
2023-09-20T18:06:28.888Z,100268.22
2023-09-20T18:09:35.205Z,100266.00
2023-09-20T18:12:40.267Z,100270.50
2023-09-20T18:15:44.996Z,100267.69
2023-09-20T18:18:51.191Z,100260.66
2023-09-20T18:21:55.924Z,100259.41
2023-09-20T18:25:02.436Z,100268.78
2023-09-20T18:28:09.880Z,100271.47
2023-09-20T18:31:18.718Z,100278.91
2023-09-20T18:34:23.708Z,100262.94
2023-09-20T18:37:29.053Z,100267.97
2023-09-20T18:40:33.945Z,100273.59
2023-09-20T18:43:39.469Z,100257.31
2023-09-20T18:46:44.824Z,100261.28
2023-09-20T18:49:49.393Z,100252.81
2023-09-20T18:52:54.289Z,100252.28
2023-09-20T18:56:00.428Z,100255.25
2023-09-20T18:59:05.160Z,100257.59
2023-09-20T19:02:12.392Z,100255.38
2023-09-20T19:05:17.642Z,100252.56
2023-09-20T19:08:22.905Z,100253.44
2023-09-20T19:11:27.591Z,100256.53
2023-09-20T19:17:39.451Z,100246.00
2023-09-20T19:20:43.937Z,100257.06
2023-09-20T19:23:48.555Z,100248.41
2023-09-20T19:26:53.300Z,100266.88
2023-09-20T19:30:01.810Z,100260.84
2023-09-20T19:33:06.819Z,100274.75
2023-09-20T19:36:11.723Z,100278.97
2023-09-20T19:39:16.253Z,100277.59
2023-09-20T19:42:22.454Z,100276.75
2023-09-20T19:45:27.829Z,100284.88
2023-09-20T19:48:32.373Z,100286.00
2023-09-20T19:51:37.042Z,100292.16
2023-09-20T19:54:41.508Z,100277.44
2023-09-20T19:57:45.964Z,100287.94
2023-09-20T20:00:54.361Z,100288.78
2023-09-20T20:04:03.552Z,100287.94
2023-09-20T20:07:21.604Z,100289.50
2023-09-20T20:10:32.837Z,100278.97
2023-09-20T20:13:37.398Z,100285.44
2023-09-20T20:16:42.023Z,100283.50
2023-09-20T20:19:46.829Z,100294.28
2023-09-20T20:22:54.113Z,100305.75
2023-09-20T20:25:59.884Z,100306.16
2023-09-20T20:29:14.102Z,100302.28
2023-09-20T20:32:20.466Z,100298.34
2023-09-20T20:35:29.217Z,100304.78
2023-09-20T20:38:33.890Z,100315.41
2023-09-20T20:41:39.258Z,100322.84
2023-09-20T20:44:43.845Z,100317.34
2023-09-20T20:47:54.978Z,100316.25
2023-09-20T20:50:59.663Z,100324.47
2023-09-20T20:54:06.043Z,100317.63
2023-09-20T20:57:10.791Z,100315.94
2023-09-20T21:00:23.048Z,100309.94
2023-09-20T21:03:27.693Z,100304.34
2023-09-20T21:06:35.715Z,100291.34
2023-09-20T21:09:42.040Z,100289.91
2023-09-20T21:12:49.926Z,100291.75
2023-09-20T21:15:54.912Z,100288.53
2023-09-20T21:18:59.227Z,100291.06
2023-09-20T21:22:03.477Z,100275.25
2023-09-20T21:25:08.927Z,100273.66
2023-09-20T21:28:13.997Z,100268.34
2023-09-20T21:31:18.834Z,100267.28
2023-09-20T21:34:24.153Z,100255.53
2023-09-20T21:37:28.619Z,100240.13
2023-09-20T21:40:34.910Z,100229.81
2023-09-20T21:43:41.449Z,100223.63
2023-09-20T21:46:45.737Z,100234.28
2023-09-20T21:49:50.229Z,100224.50
2023-09-20T21:52:57.983Z,100228.97
2023-09-20T21:56:02.837Z,100223.91
2023-09-20T21:59:07.749Z,100232.03
2023-09-20T22:02:11.967Z,100234.00
2023-09-20T22:05:18.440Z,100233.84
2023-09-20T22:08:24.214Z,100225.59
2023-09-20T22:11:29.002Z,100230.91
2023-09-20T22:14:33.525Z,100223.50
2023-09-20T22:17:37.967Z,100213.28
2023-09-20T22:20:42.648Z,100212.59
2023-09-20T22:23:47.390Z,100211.63
2023-09-20T22:26:52.509Z,100210.50
2023-09-20T22:29:57.447Z,100197.22
2023-09-20T22:33:01.850Z,100192.16
2023-09-20T22:36:14.027Z,100195.69
2023-09-20T22:39:21.381Z,100193.56
2023-09-20T22:42:26.227Z,100189.22
2023-09-20T22:45:32.962Z,100184.19
2023-09-20T22:48:37.609Z,100179.31
2023-09-20T22:51:42.096Z,100171.91
2023-09-20T22:54:47.670Z,100168.53
2023-09-20T22:57:52.183Z,100166.88
2023-09-20T23:00:59.459Z,100161.41
2023-09-20T23:04:05.334Z,100158.63
2023-09-20T23:07:12.028Z,100153.28
2023-09-20T23:10:21.713Z,100150.91
2023-09-20T23:13:26.525Z,100137.91
2023-09-20T23:16:32.479Z,100139.16
2023-09-20T23:19:39.770Z,100133.84
2023-09-20T23:22:44.559Z,100126.88
2023-09-20T23:25:51.441Z,100125.19
2023-09-20T23:28:56.998Z,100122.50
2023-09-20T23:32:04.907Z,100124.50
2023-09-20T23:35:10.421Z,100118.47
2023-09-20T23:38:22.308Z,100127.97
2023-09-20T23:41:26.626Z,100138.06
2023-09-20T23:44:31.128Z,100127.44
2023-09-20T23:47:40.203Z,100122.81
2023-09-20T23:50:49.119Z,100121.53
2023-09-20T23:53:54.247Z,100112.16
2023-09-20T23:56:59.285Z,100114.97
